KEEN/EEN METAR and TAF weather

Enter ICAO airport designator
Station Type Date Time Source
KEEN METAR 2021/09/24 04:56 UTC NOAA

KEEN 240456Z AUTO 16008G16KT 10SM -RA BKN019 BKN025 OVC040 22/20 A3001 RMK AO2 RAB03 SLP163 P0000 T02220200 402670200 $


Station Type Date Time Source
KEEN Decoded METAR 2021/09/24 04:56 UTC NOAA

Keene, Dillant-Hopkins Airport, NH, United States (KEEN) 42-54N 072-16W
Sep 24, 2021 - 12:56 AM EDT / 2021.09.24 0456 UTC
Wind: from the SSE (160 degrees) at 9 MPH (8 KT) gusting to 18 MPH (16 KT):0
Visibility: 10 mile(s):0
Sky conditions: overcast
Weather: light rain
Precipitation last hour: A trace
Temperature: 72.0 F (22.2 C)
Dew Point: 68.0 F (20.0 C)
Relative Humidity: 87%
Pressure (altimeter): 30.01 in. Hg (1016 hPa)
ob: KEEN 240456Z AUTO 16008G16KT 10SM -RA BKN019 BKN025 OVC040 22/20 A3001 RMK AO2 RAB03 SLP163 P0000 T02220200 402670200
cycle: 5

Station Type Date Time Source
KEEN TAF UTC NOAA

Error!

Example: see airport list